FW5941 Weather Reports


Display with metric or nautical units.
time (UTC)temp
F
wind
direction
speed
MPH
gust
MPH
rain 1hr
in
rain 24hr
in
rain mn
in
humidity
%
barometer
mb
20260505124853 56 140 3.0 10.0 0.00 0.00 0.00 66 1009.7
20260505124351 56 160 3.0 10.0 0.00 0.00 0.00 65 1009.7
20260505123850 56 178 2.0 8.0 0.00 0.00 0.00 65 1009.7
20260505123351 56 178 3.0 11.0 0.00 0.00 0.00 65 1009.5
20260505122849 56 169 3.0 11.0 0.00 0.00 0.00 65 1009.3
20260505122350 55 146 3.0 9.0 0.00 0.00 0.00 65 1009.3
20260505121351 56 148 3.0 9.0 0.00 0.00 0.00 65 1009.2
20260505120841 55 184 3.0 8.0 0.00 0.00 0.00 65 1009.3
20260505120339 56 177 3.0 8.0 0.00 0.00 0.00 66 1009.3
20260505115839 56 158 3.0 8.0 0.00 0.00 0.00 67 1009.4
20260505114839 56 192 2.0 7.0 0.00 0.00 0.00 68 1009.4
20260505114338 56 192 2.0 7.0 0.00 0.00 0.00 68 1009.4
20260505113839 56 158 1.0 5.0 0.00 0.00 0.00 67 1009.5
20260505112840 56 193 0.0 4.0 0.00 0.00 0.00 67 1009.5
20260505112339 56 193 0.0 4.0 0.00 0.00 0.00 67 1009.5
20260505111838 56 196 0.0 3.0 0.00 0.00 0.00 66 1009.5
20260505111338 56 193 0.0 3.0 0.00 0.00 0.00 66 1009.5
20260505110836 56 178 0.0 1.0 0.00 0.00 0.00 66 1009.5
20260505110335 56 178 0.0 2.0 0.00 0.00 0.00 66 1009.5
20260505101831 56 146 2.0 5.0 0.00 0.00 0.00 64 1009.5
20260505101332 57 168 1.0 5.0 0.00 0.00 0.00 64 1009.4
20260505100832 57 152 0.0 2.0 0.00 0.00 0.00 64 1009.4
20260505100331 57 148 0.0 2.0 0.00 0.00 0.00 64 1009.4
20260505095830 57 148 1.0 5.0 0.00 0.00 0.00 64 1009.4
20260505095336 57 148 1.0 5.0 0.00 0.00 0.00 64 1009.4
20260505094832 57 145 2.0 7.0 0.00 0.00 0.00 64 1009.5
20260505094328 57 140 2.0 7.0 0.00 0.00 0.00 64 1009.4
20260505093828 57 117 3.0 7.0 0.00 0.00 0.00 64 1009.3
20260505093330 57 197 3.0 7.0 0.00 0.00 0.00 64 1009.4
20260505092828 57 173 3.0 7.0 0.00 0.00 0.00 63 1009.4
20260505091825 57 155 3.0 9.0 0.00 0.00 0.00 63 1009.4
20260505091325 56 140 3.0 9.0 0.00 0.00 0.00 64 1009.3
20260505090824 56 158 2.0 5.0 0.00 0.00 0.00 64 1009.4
20260505090324 56 175 2.0 6.0 0.00 0.00 0.00 64 1009.5
20260505085824 56 140 2.0 6.0 0.00 0.00 0.00 64 1009.4
20260505085324 56 124 2.0 6.0 0.00 0.00 0.00 64 1009.5
20260505084323 56 140 2.0 6.0 0.00 0.00 0.00 64 1009.5
20260505082819 57 202 0.0 4.0 0.00 0.00 0.00 64 1009.7
20260505081313 57 173 1.0 6.0 0.00 0.00 0.00 63 1010.0
20260505080314 57 138 1.0 7.0 0.00 0.00 0.00 62 1009.9
20260505074811 57 163 4.0 10.0 0.00 0.00 0.00 61 1009.9
20260505074307 57 140 4.0 10.0 0.00 0.00 0.00 60 1009.9
20260505073806 57 196 4.0 11.0 0.00 0.00 0.00 60 1010.0
20260505072805 57 150 4.0 9.0 0.00 0.00 0.00 60 1009.9
20260505072307 57 165 4.0 14.0 0.00 0.00 0.00 59 1010.0
20260505071805 57 167 4.0 14.0 0.00 0.00 0.00 59 1009.9
20260505071304 57 148 5.0 11.0 0.00 0.00 0.00 58 1009.9
20260505070804 57 133 5.0 12.0 0.00 0.00 0.00 57 1009.9
20260505070304 57 176 5.0 12.0 0.00 0.00 0.00 56 1009.9
20260505065802 57 143 5.0 12.0 0.00 0.00 0.00 56 1009.9
20260505065304 57 204 5.0 12.0 0.00 0.00 0.00 56 1010.0
20260505064804 57 190 5.0 11.0 0.00 0.00 0.00 56 1010.0
20260505064302 57 163 6.0 17.0 0.00 0.00 0.00 57 1010.0
20260505063801 57 153 6.0 17.0 0.00 0.00 0.00 57 1010.0
20260505063300 57 140 6.0 14.0 0.00 0.00 0.00 57 1010.0
20260505062802 57 101 4.0 11.0 0.00 0.00 0.00 58 1009.9
20260505062300 57 226 4.0 11.0 0.00 0.00 0.00 58 1010.0
20260505061801 57 96 5.0 12.0 0.00 0.00 0.00 59 1010.0
20260505061258 57 136 5.0 12.0 0.00 0.00 0.00 59 1010.1
20260505060758 57 115 4.0 12.0 0.00 0.00 0.00 59 1010.2
20260505060254 57 146 5.0 12.0 0.00 0.00 0.00 59 1010.0
20260505055753 57 208 5.0 14.0 0.00 0.00 0.00 59 1010.1
20260505054753 58 130 4.0 14.0 0.00 0.00 0.00 59 1010.1
20260505054253 58 185 6.0 14.0 0.00 0.00 0.00 59 1010.1
20260505053753 58 134 6.0 14.0 0.00 0.00 0.00 59 1010.1
20260505052744 58 138 6.0 19.0 0.00 0.00 0.00 59 1010.0
20260505051744 58 178 7.0 15.0 0.00 0.00 0.00 59 1009.9
20260505050742 59 139 7.0 16.0 0.00 0.00 0.00 58 1009.7
20260505050245 60 137 7.0 16.0 0.00 0.00 0.00 56 1009.7
20260505041738 62 127 4.0 15.0 0.00 0.00 0.00 44 1008.6
20260505041239 62 200 4.0 11.0 0.00 0.00 0.00 45 1008.7
20260505040739 62 82 3.0 11.0 0.00 0.00 0.00 44 1008.6
20260505040238 63 153 3.0 8.0 0.00 0.00 0.00 43 1008.6
20260505035742 63 119 3.0 8.0 0.00 0.00 0.00 43 1008.6
20260505035239 63 182 3.0 8.0 0.00 0.00 0.00 44 1008.5
20260505034738 63 155 3.0 8.0 0.00 0.00 0.00 44 1008.4
20260505034238 63 186 2.0 7.0 0.00 0.00 0.00 45 1008.3
20260505033244 64 180 3.0 11.0 0.00 0.00 0.00 46 1008.1
20260505032240 64 175 4.0 11.0 0.00 0.00 0.00 43 1008.0
20260505031240 64 153 3.0 9.0 0.00 0.00 0.00 43 1008.0
20260505030738 65 157 3.0 11.0 0.00 0.00 0.00 42 1008.0
20260505030237 65 201 3.0 11.0 0.00 0.00 0.00 42 1007.9
20260505025735 65 159 3.0 10.0 0.00 0.00 0.00 42 1007.9
20260505025232 65 164 4.0 10.0 0.00 0.00 0.00 42 1007.8
20260505024233 65 192 3.0 9.0 0.00 0.00 0.00 42 1007.7
20260505023733 66 167 3.0 9.0 0.00 0.00 0.00 42 1007.6
20260505022732 66 175 4.0 12.0 0.00 0.00 0.00 40 1007.6
20260505021732 66 132 4.0 9.0 0.00 0.00 0.00 38 1007.5
20260505021231 67 211 3.0 9.0 0.00 0.00 0.00 38 1007.3
20260505020726 67 165 3.0 13.0 0.00 0.00 0.00 38 1007.3
20260505015729 67 194 4.0 13.0 0.00 0.00 0.00 37 1007.5
20260505015222 68 137 4.0 13.0 0.00 0.00 0.00 37 1007.5
20260505014724 68 198 4.0 16.0 0.00 0.00 0.00 37 1007.5
20260505014220 69 145 4.0 16.0 0.00 0.00 0.00 36 1007.5
20260505013221 69 155 1.0 3.0 0.00 0.00 0.00 32 1007.3
20260505012720 69 157 1.0 6.0 0.00 0.00 0.00 34 1007.3
20260505012218 70 178 1.0 6.0 0.00 0.00 0.00 33 1007.5
20260505011715 70 142 1.0 3.0 0.00 0.00 0.00 33 1007.5
20260505011214 70 142 1.0 3.0 0.00 0.00 0.00 32 1007.5
20260505010217 70 142 1.0 4.0 0.00 0.00 0.00 34 1007.6
20260505005714 70 140 2.0 5.0 0.00 0.00 0.00 34 1007.5
20260505005212 70 157 1.0 5.0 0.00 0.00 0.00 34 1007.6
20260505003711 69 127 1.0 3.0 0.00 0.00 0.00 36 1007.6
20260505003213 69 127 1.0 3.0 0.00 0.00 0.00 34 1007.6
20260505002710 69 127 1.0 4.0 0.00 0.00 0.00 35 1007.6
20260505002208 69 127 1.0 4.0 0.00 0.00 0.00 34 1007.7
20260505001709 69 95 1.0 4.0 0.00 0.00 0.00 34 1007.7
20260505000706 69 61 2.0 5.0 0.00 0.00 0.00 33 1007.7
20260504235712 69 49 2.0 8.0 0.00 0.00 0.00 35 1007.8
20260504235208 69 59 2.0 8.0 0.00 0.00 0.00 34 1007.9
20260504234710 69 77 1.0 4.0 0.00 0.00 0.00 34 1008.0
20260504234208 69 89 1.0 6.0 0.00 0.00 0.00 34 1008.1
20260504233206 70 104 2.0 6.0 0.00 0.00 0.00 35 1008.4
20260504232704 70 119 2.0 6.0 0.00 0.00 0.00 34 1008.4
20260504232205 70 99 2.0 8.0 0.00 0.00 0.00 35 1008.4
20260504231704 70 21 3.0 8.0 0.00 0.00 0.00 34 1008.3
20260504231203 71 120 4.0 9.0 0.00 0.00 0.00 34 1008.3
20260504230201 71 85 3.0 8.0 0.00 0.00 0.00 33 1008.1
20260504225652 71 62 3.0 12.0 0.00 0.00 0.00 32 1008.1
20260504225154 71 46 4.0 12.0 0.00 0.00 0.00 33 1008.4
20260504224151 72 49 4.0 11.0 0.00 0.00 0.00 32 1008.1
20260504223652 73 90 3.0 10.0 0.00 0.00 0.00 31 1008.3
20260504223151 73 105 3.0 10.0 0.00 0.00 0.00 30 1008.1
20260504222149 74 107 2.0 12.0 0.00 0.00 0.00 32 1008.3
20260504221649 74 279 1.0 3.0 0.00 0.00 0.00 31 1008.4
20260504221146 73 267 2.0 4.0 0.00 0.00 0.00 34 1008.1
20260504220646 73 236 2.0 4.0 0.00 0.00 0.00 31 1008.1
20260504220143 72 249 1.0 3.0 0.00 0.00 0.00 34 1008.3
20260504215643 71 242 1.0 7.0 0.00 0.00 0.00 38 1008.4
20260504215144 70 241 2.0 7.0 0.00 0.00 0.00 34 1008.3
20260504214643 70 150 2.0 6.0 0.00 0.00 0.00 33 1008.5
20260504214150 69 227 2.0 6.0 0.00 0.00 0.00 35 1008.5
20260504213645 69 222 1.0 5.0 0.00 0.00 0.00 36 1008.7
20260504213142 69 195 2.0 8.0 0.00 0.00 0.00 36 1008.7
20260504212642 69 276 2.0 8.0 0.00 0.00 0.00 36 1008.7
20260504212140 70 175 2.0 5.0 0.00 0.00 0.00 36 1008.7
20260504211640 71 223 2.0 5.0 0.00 0.00 0.00 36 1008.7
20260504210641 72 271 2.0 6.0 0.00 0.00 0.00 31 1008.6
20260504210138 72 281 2.0 6.0 0.00 0.00 0.00 30 1008.6
20260504205638 72 277 2.0 6.0 0.00 0.00 0.00 32 1008.6
20260504205137 73 212 2.0 4.0 0.00 0.00 0.00 32 1008.6
20260504204636 73 267 2.0 4.0 0.00 0.00 0.00 33 1008.6
20260504204136 73 284 1.0 4.0 0.00 0.00 0.00 33 1008.6
20260504203135 73 206 1.0 3.0 0.00 0.00 0.00 29 1008.7
20260504202634 73 173 0.0 3.0 0.00 0.00 0.00 33 1008.6
20260504202132 73 161 0.0 2.0 0.00 0.00 0.00 31 1008.6
20260504201633 73 161 0.0 2.0 0.00 0.00 0.00 30 1008.6
20260504201132 73 161 1.0 4.0 0.00 0.00 0.00 33 1008.7
20260504200632 73 161 1.0 5.0 0.00 0.00 0.00 32 1008.7
20260504200132 73 155 1.0 5.0 0.00 0.00 0.00 33 1008.7
20260504195633 72 153 2.0 7.0 0.00 0.00 0.00 32 1008.9
20260504195134 72 154 1.0 7.0 0.00 0.00 0.00 33 1008.8
20260504194632 72 114 1.0 6.0 0.00 0.00 0.00 30 1008.8
20260504194133 72 158 1.0 5.0 0.00 0.00 0.00 32 1008.9
20260504193631 72 180 2.0 6.0 0.00 0.00 0.00 30 1008.9
20260504193130 72 203 2.0 8.0 0.00 0.00 0.00 32 1009.1
20260504192628 72 136 1.0 8.0 0.00 0.00 0.00 30 1009.1
20260504192129 72 175 1.0 6.0 0.00 0.00 0.00 33 1009.1
20260504191626 73 172 2.0 7.0 0.00 0.00 0.00 31 1009.1
20260504190625 74 148 2.0 6.0 0.00 0.00 0.00 32 1009.2
20260504190125 74 173 3.0 8.0 0.00 0.00 0.00 31 1009.3
20260504185121 75 96 3.0 8.0 0.00 0.00 0.00 28 1009.5
20260504184620 75 111 3.0 8.0 0.00 0.00 0.00 28 1009.6
20260504184116 74 163 3.0 8.0 0.00 0.00 0.00 31 1009.6
20260504183607 74 131 4.0 9.0 0.00 0.00 0.00 29 1009.7
20260504183106 74 106 4.0 9.0 0.00 0.00 0.00 31 1009.7
20260504182105 72 153 4.0 9.0 0.00 0.00 0.00 33 1010.0
20260504181606 71 163 4.0 10.0 0.00 0.00 0.00 33 1010.0
20260504181102 72 113 4.0 10.0 0.00 0.00 0.00 34 1010.1
20260504180604 72 121 4.0 9.0 0.00 0.00 0.00 33 1010.1
20260504180103 73 188 4.0 10.0 0.00 0.00 0.00 32 1010.2
20260504175604 73 119 4.0 11.0 0.00 0.00 0.00 32 1010.2
20260504175103 73 219 5.0 11.0 0.00 0.00 0.00 35 1010.2
20260504174601 73 189 4.0 11.0 0.00 0.00 0.00 32 1010.2
20260504174101 73 221 4.0 11.0 0.00 0.00 0.00 34 1010.2
20260504173559 73 180 4.0 10.0 0.00 0.00 0.00 33 1010.3
20260504173101 72 140 5.0 10.0 0.00 0.00 0.00 33 1010.2
20260504172554 73 242 5.0 10.0 0.00 0.00 0.00 32 1010.3
20260504172047 73 163 5.0 12.0 0.00 0.00 0.00 33 1010.3
20260504171548 72 155 5.0 12.0 0.00 0.00 0.00 34 1010.5
20260504171047 72 176 5.0 11.0 0.00 0.00 0.00 33 1010.4
20260504170547 72 167 5.0 11.0 0.00 0.00 0.00 33 1010.5
20260504150530 62 128 4.0 11.0 0.00 0.00 0.00 49 1011.0
20260504141027 60 137 3.0 10.0 0.00 0.00 0.00 53 1010.9
20260504140528 60 205 2.0 10.0 0.00 0.00 0.00 54 1010.9